sensor_id;sensor_type;location;lat;lon;timestamp;P1;durP1;ratioP1;P2;durP2;ratioP2
42294;SDS011;27947;47.556;18.718;2024-01-06T00:02:24;17.73;;;10.75;;
42294;SDS011;27947;47.556;18.718;2024-01-06T00:04:49;20.08;;;11.38;;
42294;SDS011;27947;47.556;18.718;2024-01-06T00:07:14;24.92;;;11.05;;
42294;SDS011;27947;47.556;18.718;2024-01-06T00:09:39;18.50;;;10.65;;
42294;SDS011;27947;47.556;18.718;2024-01-06T00:12:05;19.52;;;10.45;;
42294;SDS011;27947;47.556;18.718;2024-01-06T00:14:30;18.33;;;10.75;;
42294;SDS011;27947;47.556;18.718;2024-01-06T00:16:56;21.80;;;11.40;;
42294;SDS011;27947;47.556;18.718;2024-01-06T00:19:21;17.98;;;10.50;;
42294;SDS011;27947;47.556;18.718;2024-01-06T00:21:46;17.50;;;10.68;;
42294;SDS011;27947;47.556;18.718;2024-01-06T00:24:11;22.35;;;10.70;;
42294;SDS011;27947;47.556;18.718;2024-01-06T00:26:37;20.08;;;9.68;;
42294;SDS011;27947;47.556;18.718;2024-01-06T00:29:02;16.95;;;9.52;;
42294;SDS011;27947;47.556;18.718;2024-01-06T00:31:27;18.30;;;9.43;;
42294;SDS011;27947;47.556;18.718;2024-01-06T00:33:53;17.77;;;10.25;;
42294;SDS011;27947;47.556;18.718;2024-01-06T00:36:18;16.65;;;9.95;;
42294;SDS011;27947;47.556;18.718;2024-01-06T00:38:43;20.15;;;10.07;;
42294;SDS011;27947;47.556;18.718;2024-01-06T00:41:08;18.08;;;9.95;;
42294;SDS011;27947;47.556;18.718;2024-01-06T00:43:34;22.88;;;10.70;;
42294;SDS011;27947;47.556;18.718;2024-01-06T00:45:59;22.40;;;11.10;;
42294;SDS011;27947;47.556;18.718;2024-01-06T00:48:24;19.77;;;11.15;;
42294;SDS011;27947;47.556;18.718;2024-01-06T00:50:49;19.95;;;10.98;;
42294;SDS011;27947;47.556;18.718;2024-01-06T00:53:15;28.10;;;11.98;;
42294;SDS011;27947;47.556;18.718;2024-01-06T00:55:40;23.88;;;12.75;;
42294;SDS011;27947;47.556;18.718;2024-01-06T00:58:05;24.17;;;12.23;;
42294;SDS011;27947;47.556;18.718;2024-01-06T01:00:30;23.15;;;12.50;;
42294;SDS011;27947;47.556;18.718;2024-01-06T01:02:56;23.10;;;13.05;;
42294;SDS011;27947;47.556;18.718;2024-01-06T01:05:22;21.05;;;12.20;;
42294;SDS011;27947;47.556;18.718;2024-01-06T01:07:47;22.27;;;13.10;;
42294;SDS011;27947;47.556;18.718;2024-01-06T01:10:12;22.77;;;12.85;;
42294;SDS011;27947;47.556;18.718;2024-01-06T01:12:37;22.85;;;11.80;;
42294;SDS011;27947;47.556;18.718;2024-01-06T01:15:04;25.42;;;12.35;;
42294;SDS011;27947;47.556;18.718;2024-01-06T01:17:29;24.67;;;11.52;;
42294;SDS011;27947;47.556;18.718;2024-01-06T01:19:55;21.17;;;12.05;;
42294;SDS011;27947;47.556;18.718;2024-01-06T01:22:20;21.92;;;12.23;;
42294;SDS011;27947;47.556;18.718;2024-01-06T01:24:46;22.02;;;12.00;;
42294;SDS011;27947;47.556;18.718;2024-01-06T01:27:11;22.83;;;12.30;;
42294;SDS011;27947;47.556;18.718;2024-01-06T01:29:36;24.65;;;11.90;;
42294;SDS011;27947;47.556;18.718;2024-01-06T01:32:01;23.58;;;12.23;;
42294;SDS011;27947;47.556;18.718;2024-01-06T01:34:27;21.77;;;11.60;;
42294;SDS011;27947;47.556;18.718;2024-01-06T01:36:52;22.10;;;12.23;;
42294;SDS011;27947;47.556;18.718;2024-01-06T01:39:17;22.73;;;11.85;;
42294;SDS011;27947;47.556;18.718;2024-01-06T01:41:43;23.10;;;12.57;;
42294;SDS011;27947;47.556;18.718;2024-01-06T01:44:08;20.40;;;11.95;;
42294;SDS011;27947;47.556;18.718;2024-01-06T01:46:33;20.73;;;11.40;;
42294;SDS011;27947;47.556;18.718;2024-01-06T01:48:59;21.30;;;11.50;;
42294;SDS011;27947;47.556;18.718;2024-01-06T01:51:34;22.98;;;12.30;;
42294;SDS011;27947;47.556;18.718;2024-01-06T01:54:03;22.25;;;11.45;;
42294;SDS011;27947;47.556;18.718;2024-01-06T01:56:30;19.63;;;11.40;;
42294;SDS011;27947;47.556;18.718;2024-01-06T01:58:59;20.23;;;11.98;;
42294;SDS011;27947;47.556;18.718;2024-01-06T02:01:25;21.67;;;12.25;;
42294;SDS011;27947;47.556;18.718;2024-01-06T02:03:51;21.45;;;12.23;;
42294;SDS011;27947;47.556;18.718;2024-01-06T02:06:16;24.42;;;11.65;;
42294;SDS011;27947;47.556;18.718;2024-01-06T02:08:41;25.27;;;11.60;;
42294;SDS011;27947;47.556;18.718;2024-01-06T02:11:07;24.40;;;12.45;;
42294;SDS011;27947;47.556;18.718;2024-01-06T02:13:32;22.08;;;12.07;;
42294;SDS011;27947;47.556;18.718;2024-01-06T02:15:58;22.60;;;11.45;;
42294;SDS011;27947;47.556;18.718;2024-01-06T02:18:24;22.10;;;11.77;;
42294;SDS011;27947;47.556;18.718;2024-01-06T02:20:50;19.17;;;11.55;;
42294;SDS011;27947;47.556;18.718;2024-01-06T02:23:16;22.65;;;12.20;;
42294;SDS011;27947;47.556;18.718;2024-01-06T02:25:41;22.30;;;12.73;;
42294;SDS011;27947;47.556;18.718;2024-01-06T02:28:06;23.20;;;12.32;;
42294;SDS011;27947;47.556;18.718;2024-01-06T02:30:31;22.50;;;12.82;;
42294;SDS011;27947;47.556;18.718;2024-01-06T02:32:56;21.13;;;11.90;;
42294;SDS011;27947;47.556;18.718;2024-01-06T02:35:22;23.05;;;12.82;;
42294;SDS011;27947;47.556;18.718;2024-01-06T02:37:47;22.30;;;12.52;;
42294;SDS011;27947;47.556;18.718;2024-01-06T02:40:13;22.52;;;13.27;;
42294;SDS011;27947;47.556;18.718;2024-01-06T02:42:38;21.80;;;12.93;;
42294;SDS011;27947;47.556;18.718;2024-01-06T02:45:04;21.55;;;12.95;;
42294;SDS011;27947;47.556;18.718;2024-01-06T02:47:29;25.45;;;12.88;;
42294;SDS011;27947;47.556;18.718;2024-01-06T02:49:54;22.20;;;12.65;;
42294;SDS011;27947;47.556;18.718;2024-01-06T02:52:19;22.83;;;13.00;;
42294;SDS011;27947;47.556;18.718;2024-01-06T02:54:45;26.73;;;13.38;;
42294;SDS011;27947;47.556;18.718;2024-01-06T02:57:10;22.10;;;12.68;;
42294;SDS011;27947;47.556;18.718;2024-01-06T02:59:38;22.55;;;13.07;;
42294;SDS011;27947;47.556;18.718;2024-01-06T03:02:03;24.45;;;13.57;;
42294;SDS011;27947;47.556;18.718;2024-01-06T03:04:29;24.83;;;13.30;;
42294;SDS011;27947;47.556;18.718;2024-01-06T03:06:54;24.42;;;13.73;;
42294;SDS011;27947;47.556;18.718;2024-01-06T03:09:19;22.67;;;13.43;;
42294;SDS011;27947;47.556;18.718;2024-01-06T03:11:44;23.50;;;13.77;;
42294;SDS011;27947;47.556;18.718;2024-01-06T03:14:10;25.48;;;13.38;;
42294;SDS011;27947;47.556;18.718;2024-01-06T03:16:35;22.63;;;13.00;;
42294;SDS011;27947;47.556;18.718;2024-01-06T03:19:00;25.70;;;13.05;;
42294;SDS011;27947;47.556;18.718;2024-01-06T03:21:26;20.55;;;12.90;;
42294;SDS011;27947;47.556;18.718;2024-01-06T03:23:51;22.48;;;12.30;;
42294;SDS011;27947;47.556;18.718;2024-01-06T03:26:17;22.48;;;11.55;;
42294;SDS011;27947;47.556;18.718;2024-01-06T03:28:42;21.58;;;12.32;;
42294;SDS011;27947;47.556;18.718;2024-01-06T03:31:08;19.27;;;11.63;;
42294;SDS011;27947;47.556;18.718;2024-01-06T03:33:33;22.60;;;11.88;;
42294;SDS011;27947;47.556;18.718;2024-01-06T03:35:58;21.58;;;12.20;;
42294;SDS011;27947;47.556;18.718;2024-01-06T03:38:23;23.27;;;12.30;;
42294;SDS011;27947;47.556;18.718;2024-01-06T03:40:49;20.67;;;11.80;;
42294;SDS011;27947;47.556;18.718;2024-01-06T03:43:14;20.92;;;12.02;;
42294;SDS011;27947;47.556;18.718;2024-01-06T03:45:39;20.63;;;11.98;;
42294;SDS011;27947;47.556;18.718;2024-01-06T03:48:04;19.25;;;12.20;;
42294;SDS011;27947;47.556;18.718;2024-01-06T03:50:30;22.85;;;11.82;;
42294;SDS011;27947;47.556;18.718;2024-01-06T03:52:55;18.45;;;10.80;;
42294;SDS011;27947;47.556;18.718;2024-01-06T03:55:20;19.23;;;11.38;;
42294;SDS011;27947;47.556;18.718;2024-01-06T03:57:46;22.15;;;12.15;;
42294;SDS011;27947;47.556;18.718;2024-01-06T04:00:11;21.75;;;11.90;;
42294;SDS011;27947;47.556;18.718;2024-01-06T04:02:36;22.55;;;12.07;;
42294;SDS011;27947;47.556;18.718;2024-01-06T04:05:02;20.63;;;12.00;;
42294;SDS011;27947;47.556;18.718;2024-01-06T04:07:27;23.50;;;12.18;;
42294;SDS011;27947;47.556;18.718;2024-01-06T04:09:52;21.13;;;12.40;;
42294;SDS011;27947;47.556;18.718;2024-01-06T04:12:17;21.63;;;12.10;;
42294;SDS011;27947;47.556;18.718;2024-01-06T04:14:43;23.38;;;12.32;;
42294;SDS011;27947;47.556;18.718;2024-01-06T04:17:08;18.25;;;12.13;;
42294;SDS011;27947;47.556;18.718;2024-01-06T04:19:33;20.10;;;12.70;;
42294;SDS011;27947;47.556;18.718;2024-01-06T04:21:59;25.00;;;12.65;;
42294;SDS011;27947;47.556;18.718;2024-01-06T04:24:24;21.45;;;12.25;;
42294;SDS011;27947;47.556;18.718;2024-01-06T04:26:50;20.58;;;12.45;;
42294;SDS011;27947;47.556;18.718;2024-01-06T04:29:15;22.95;;;12.80;;
42294;SDS011;27947;47.556;18.718;2024-01-06T04:31:40;23.50;;;13.05;;
42294;SDS011;27947;47.556;18.718;2024-01-06T04:34:06;22.02;;;12.52;;
42294;SDS011;27947;47.556;18.718;2024-01-06T04:36:31;23.50;;;12.80;;
42294;SDS011;27947;47.556;18.718;2024-01-06T04:38:56;23.42;;;13.30;;
42294;SDS011;27947;47.556;18.718;2024-01-06T04:41:21;22.13;;;12.85;;
42294;SDS011;27947;47.556;18.718;2024-01-06T04:43:47;23.50;;;13.38;;
42294;SDS011;27947;47.556;18.718;2024-01-06T04:46:12;19.50;;;12.40;;
42294;SDS011;27947;47.556;18.718;2024-01-06T04:48:38;23.55;;;13.32;;
42294;SDS011;27947;47.556;18.718;2024-01-06T04:51:03;20.13;;;13.18;;
42294;SDS011;27947;47.556;18.718;2024-01-06T04:53:28;27.10;;;13.65;;
42294;SDS011;27947;47.556;18.718;2024-01-06T04:55:54;25.58;;;12.30;;
42294;SDS011;27947;47.556;18.718;2024-01-06T04:58:19;25.77;;;13.40;;
42294;SDS011;27947;47.556;18.718;2024-01-06T05:00:44;20.75;;;12.27;;
42294;SDS011;27947;47.556;18.718;2024-01-06T05:03:10;24.80;;;13.85;;
42294;SDS011;27947;47.556;18.718;2024-01-06T05:05:35;21.77;;;12.63;;
42294;SDS011;27947;47.556;18.718;2024-01-06T05:08:00;25.80;;;13.27;;
42294;SDS011;27947;47.556;18.718;2024-01-06T05:10:26;21.05;;;12.90;;
42294;SDS011;27947;47.556;18.718;2024-01-06T05:12:51;23.70;;;12.50;;
42294;SDS011;27947;47.556;18.718;2024-01-06T05:15:16;22.70;;;13.18;;
42294;SDS011;27947;47.556;18.718;2024-01-06T05:17:42;20.42;;;11.88;;
42294;SDS011;27947;47.556;18.718;2024-01-06T05:20:07;20.13;;;11.85;;
42294;SDS011;27947;47.556;18.718;2024-01-06T05:22:32;22.77;;;12.32;;
42294;SDS011;27947;47.556;18.718;2024-01-06T05:24:58;23.30;;;12.98;;
42294;SDS011;27947;47.556;18.718;2024-01-06T05:27:23;20.60;;;12.98;;
42294;SDS011;27947;47.556;18.718;2024-01-06T05:29:49;20.45;;;11.57;;
42294;SDS011;27947;47.556;18.718;2024-01-06T05:32:15;20.25;;;12.75;;
42294;SDS011;27947;47.556;18.718;2024-01-06T05:34:40;23.52;;;12.32;;
42294;SDS011;27947;47.556;18.718;2024-01-06T05:37:06;20.25;;;12.18;;
42294;SDS011;27947;47.556;18.718;2024-01-06T05:39:31;17.88;;;11.23;;
42294;SDS011;27947;47.556;18.718;2024-01-06T05:41:57;21.83;;;12.48;;
42294;SDS011;27947;47.556;18.718;2024-01-06T05:44:22;21.52;;;13.05;;
42294;SDS011;27947;47.556;18.718;2024-01-06T05:46:47;21.65;;;11.48;;
42294;SDS011;27947;47.556;18.718;2024-01-06T05:49:12;20.38;;;11.82;;
42294;SDS011;27947;47.556;18.718;2024-01-06T05:51:43;24.90;;;14.25;;
42294;SDS011;27947;47.556;18.718;2024-01-06T05:54:08;25.75;;;15.60;;
42294;SDS011;27947;47.556;18.718;2024-01-06T05:56:34;22.98;;;13.55;;
42294;SDS011;27947;47.556;18.718;2024-01-06T05:58:59;22.50;;;12.85;;
42294;SDS011;27947;47.556;18.718;2024-01-06T06:01:24;22.58;;;12.40;;
42294;SDS011;27947;47.556;18.718;2024-01-06T06:03:50;19.67;;;12.05;;
42294;SDS011;27947;47.556;18.718;2024-01-06T06:06:15;20.88;;;12.35;;
42294;SDS011;27947;47.556;18.718;2024-01-06T06:08:41;22.48;;;12.60;;
42294;SDS011;27947;47.556;18.718;2024-01-06T06:11:07;17.60;;;11.68;;
42294;SDS011;27947;47.556;18.718;2024-01-06T06:13:39;23.95;;;13.07;;
42294;SDS011;27947;47.556;18.718;2024-01-06T06:16:06;20.48;;;11.77;;
42294;SDS011;27947;47.556;18.718;2024-01-06T06:18:31;20.48;;;12.88;;
42294;SDS011;27947;47.556;18.718;2024-01-06T06:20:58;22.63;;;12.82;;
42294;SDS011;27947;47.556;18.718;2024-01-06T06:23:23;23.23;;;12.98;;
42294;SDS011;27947;47.556;18.718;2024-01-06T06:25:48;21.67;;;13.10;;
42294;SDS011;27947;47.556;18.718;2024-01-06T06:28:14;24.45;;;13.15;;
42294;SDS011;27947;47.556;18.718;2024-01-06T06:30:39;23.02;;;12.50;;
42294;SDS011;27947;47.556;18.718;2024-01-06T06:33:06;22.63;;;12.65;;
42294;SDS011;27947;47.556;18.718;2024-01-06T06:35:32;21.20;;;13.20;;
42294;SDS011;27947;47.556;18.718;2024-01-06T06:37:57;24.27;;;12.60;;
42294;SDS011;27947;47.556;18.718;2024-01-06T06:40:23;22.58;;;13.55;;
42294;SDS011;27947;47.556;18.718;2024-01-06T06:42:48;21.88;;;12.38;;
42294;SDS011;27947;47.556;18.718;2024-01-06T06:45:13;25.08;;;13.25;;
42294;SDS011;27947;47.556;18.718;2024-01-06T06:47:38;21.23;;;12.60;;
42294;SDS011;27947;47.556;18.718;2024-01-06T06:50:04;24.05;;;13.50;;
42294;SDS011;27947;47.556;18.718;2024-01-06T06:52:29;26.83;;;12.80;;
42294;SDS011;27947;47.556;18.718;2024-01-06T06:54:54;21.33;;;12.55;;
42294;SDS011;27947;47.556;18.718;2024-01-06T06:57:20;22.63;;;13.18;;
42294;SDS011;27947;47.556;18.718;2024-01-06T06:59:45;27.58;;;14.32;;
42294;SDS011;27947;47.556;18.718;2024-01-06T07:02:10;26.35;;;15.48;;
42294;SDS011;27947;47.556;18.718;2024-01-06T07:04:36;24.55;;;15.13;;
42294;SDS011;27947;47.556;18.718;2024-01-06T07:07:01;24.00;;;14.30;;
42294;SDS011;27947;47.556;18.718;2024-01-06T07:09:26;25.98;;;14.50;;
42294;SDS011;27947;47.556;18.718;2024-01-06T07:11:51;26.17;;;14.85;;
42294;SDS011;27947;47.556;18.718;2024-01-06T07:14:17;25.77;;;14.02;;
42294;SDS011;27947;47.556;18.718;2024-01-06T07:16:42;23.85;;;14.15;;
42294;SDS011;27947;47.556;18.718;2024-01-06T07:19:07;21.73;;;12.68;;
42294;SDS011;27947;47.556;18.718;2024-01-06T07:21:33;22.85;;;12.48;;
42294;SDS011;27947;47.556;18.718;2024-01-06T07:23:58;19.42;;;11.68;;
42294;SDS011;27947;47.556;18.718;2024-01-06T07:26:23;22.35;;;12.30;;
42294;SDS011;27947;47.556;18.718;2024-01-06T07:28:49;19.13;;;11.15;;
42294;SDS011;27947;47.556;18.718;2024-01-06T07:31:14;21.92;;;12.68;;
42294;SDS011;27947;47.556;18.718;2024-01-06T07:33:39;18.88;;;11.18;;
42294;SDS011;27947;47.556;18.718;2024-01-06T07:36:05;19.50;;;11.30;;
42294;SDS011;27947;47.556;18.718;2024-01-06T07:38:30;21.75;;;11.10;;
42294;SDS011;27947;47.556;18.718;2024-01-06T07:40:56;22.42;;;11.60;;
42294;SDS011;27947;47.556;18.718;2024-01-06T07:43:21;20.55;;;12.05;;
42294;SDS011;27947;47.556;18.718;2024-01-06T07:45:46;21.05;;;12.98;;
42294;SDS011;27947;47.556;18.718;2024-01-06T07:48:12;23.13;;;13.57;;
42294;SDS011;27947;47.556;18.718;2024-01-06T07:50:37;22.67;;;13.45;;
42294;SDS011;27947;47.556;18.718;2024-01-06T07:53:03;24.42;;;14.18;;
42294;SDS011;27947;47.556;18.718;2024-01-06T07:55:28;23.33;;;14.00;;
42294;SDS011;27947;47.556;18.718;2024-01-06T07:57:54;20.40;;;13.70;;
42294;SDS011;27947;47.556;18.718;2024-01-06T08:00:19;22.60;;;13.18;;
42294;SDS011;27947;47.556;18.718;2024-01-06T08:02:44;20.85;;;13.75;;
42294;SDS011;27947;47.556;18.718;2024-01-06T08:05:10;23.30;;;15.32;;
42294;SDS011;27947;47.556;18.718;2024-01-06T08:07:35;27.23;;;17.08;;
42294;SDS011;27947;47.556;18.718;2024-01-06T08:10:00;25.23;;;16.63;;
42294;SDS011;27947;47.556;18.718;2024-01-06T08:12:26;23.33;;;14.70;;
42294;SDS011;27947;47.556;18.718;2024-01-06T08:14:51;22.88;;;14.50;;
42294;SDS011;27947;47.556;18.718;2024-01-06T08:17:17;22.10;;;13.95;;
42294;SDS011;27947;47.556;18.718;2024-01-06T08:19:42;19.77;;;13.32;;
42294;SDS011;27947;47.556;18.718;2024-01-06T08:22:07;18.30;;;12.27;;
42294;SDS011;27947;47.556;18.718;2024-01-06T08:24:33;19.90;;;12.90;;
42294;SDS011;27947;47.556;18.718;2024-01-06T08:26:58;22.65;;;14.13;;
42294;SDS011;27947;47.556;18.718;2024-01-06T08:29:24;22.45;;;13.57;;
42294;SDS011;27947;47.556;18.718;2024-01-06T08:31:50;20.40;;;13.48;;
42294;SDS011;27947;47.556;18.718;2024-01-06T08:34:17;26.13;;;14.50;;
42294;SDS011;27947;47.556;18.718;2024-01-06T08:36:42;24.08;;;14.48;;
42294;SDS011;27947;47.556;18.718;2024-01-06T08:39:08;24.23;;;14.23;;
42294;SDS011;27947;47.556;18.718;2024-01-06T08:41:33;22.10;;;13.80;;
42294;SDS011;27947;47.556;18.718;2024-01-06T08:43:59;19.13;;;13.02;;
42294;SDS011;27947;47.556;18.718;2024-01-06T08:46:24;19.50;;;13.38;;
42294;SDS011;27947;47.556;18.718;2024-01-06T08:48:50;21.45;;;12.98;;
42294;SDS011;27947;47.556;18.718;2024-01-06T08:51:15;23.15;;;14.55;;
42294;SDS011;27947;47.556;18.718;2024-01-06T08:53:40;20.15;;;13.02;;
42294;SDS011;27947;47.556;18.718;2024-01-06T08:56:06;22.52;;;13.70;;
42294;SDS011;27947;47.556;18.718;2024-01-06T08:58:31;19.90;;;13.15;;
42294;SDS011;27947;47.556;18.718;2024-01-06T09:00:56;21.80;;;14.02;;
42294;SDS011;27947;47.556;18.718;2024-01-06T09:03:22;21.48;;;14.20;;
42294;SDS011;27947;47.556;18.718;2024-01-06T09:05:55;22.80;;;13.57;;
42294;SDS011;27947;47.556;18.718;2024-01-06T09:08:21;22.52;;;14.05;;
42294;SDS011;27947;47.556;18.718;2024-01-06T09:10:46;29.25;;;17.23;;
42294;SDS011;27947;47.556;18.718;2024-01-06T09:13:11;37.95;;;21.52;;
42294;SDS011;27947;47.556;18.718;2024-01-06T09:15:37;36.35;;;22.63;;
42294;SDS011;27947;47.556;18.718;2024-01-06T09:18:02;41.33;;;21.65;;
42294;SDS011;27947;47.556;18.718;2024-01-06T09:20:27;32.08;;;19.98;;
42294;SDS011;27947;47.556;18.718;2024-01-06T09:22:53;33.20;;;18.85;;
42294;SDS011;27947;47.556;18.718;2024-01-06T09:25:18;28.40;;;18.70;;
42294;SDS011;27947;47.556;18.718;2024-01-06T09:27:43;30.90;;;19.65;;
42294;SDS011;27947;47.556;18.718;2024-01-06T09:30:09;30.55;;;18.42;;
42294;SDS011;27947;47.556;18.718;2024-01-06T09:32:34;31.15;;;19.30;;
42294;SDS011;27947;47.556;18.718;2024-01-06T09:34:59;30.27;;;19.30;;
42294;SDS011;27947;47.556;18.718;2024-01-06T09:37:25;34.90;;;20.55;;
42294;SDS011;27947;47.556;18.718;2024-01-06T09:39:50;38.38;;;24.33;;
42294;SDS011;27947;47.556;18.718;2024-01-06T09:42:15;44.25;;;25.65;;
42294;SDS011;27947;47.556;18.718;2024-01-06T09:44:41;39.90;;;23.85;;
42294;SDS011;27947;47.556;18.718;2024-01-06T09:47:06;57.85;;;34.78;;
42294;SDS011;27947;47.556;18.718;2024-01-06T09:49:33;67.20;;;36.88;;
42294;SDS011;27947;47.556;18.718;2024-01-06T09:51:59;59.80;;;35.55;;
42294;SDS011;27947;47.556;18.718;2024-01-06T09:54:25;49.45;;;30.38;;
42294;SDS011;27947;47.556;18.718;2024-01-06T09:56:53;43.33;;;27.15;;
42294;SDS011;27947;47.556;18.718;2024-01-06T09:59:20;34.47;;;20.80;;
42294;SDS011;27947;47.556;18.718;2024-01-06T10:01:46;25.90;;;17.13;;
42294;SDS011;27947;47.556;18.718;2024-01-06T10:04:11;26.20;;;15.63;;
42294;SDS011;27947;47.556;18.718;2024-01-06T10:06:37;25.45;;;15.90;;
42294;SDS011;27947;47.556;18.718;2024-01-06T10:09:02;25.45;;;15.43;;
42294;SDS011;27947;47.556;18.718;2024-01-06T10:11:30;25.42;;;15.45;;
42294;SDS011;27947;47.556;18.718;2024-01-06T10:13:55;27.83;;;17.25;;
42294;SDS011;27947;47.556;18.718;2024-01-06T10:16:21;29.45;;;17.50;;
42294;SDS011;27947;47.556;18.718;2024-01-06T10:18:47;25.67;;;17.55;;
42294;SDS011;27947;47.556;18.718;2024-01-06T10:21:12;31.70;;;18.33;;
42294;SDS011;27947;47.556;18.718;2024-01-06T10:23:39;25.73;;;16.63;;
42294;SDS011;27947;47.556;18.718;2024-01-06T10:26:04;26.38;;;17.40;;
42294;SDS011;27947;47.556;18.718;2024-01-06T10:28:29;27.42;;;17.77;;
42294;SDS011;27947;47.556;18.718;2024-01-06T10:30:55;25.33;;;15.60;;
42294;SDS011;27947;47.556;18.718;2024-01-06T10:33:21;26.67;;;15.85;;
42294;SDS011;27947;47.556;18.718;2024-01-06T10:35:47;28.67;;;17.92;;
42294;SDS011;27947;47.556;18.718;2024-01-06T10:38:13;30.42;;;17.85;;
42294;SDS011;27947;47.556;18.718;2024-01-06T10:40:38;27.73;;;17.50;;
42294;SDS011;27947;47.556;18.718;2024-01-06T10:43:04;29.67;;;16.80;;
42294;SDS011;27947;47.556;18.718;2024-01-06T10:45:30;26.17;;;16.65;;
42294;SDS011;27947;47.556;18.718;2024-01-06T10:47:55;24.00;;;14.48;;
42294;SDS011;27947;47.556;18.718;2024-01-06T10:50:22;24.05;;;15.52;;
42294;SDS011;27947;47.556;18.718;2024-01-06T10:52:47;28.23;;;15.68;;
42294;SDS011;27947;47.556;18.718;2024-01-06T10:55:13;33.38;;;20.55;;
42294;SDS011;27947;47.556;18.718;2024-01-06T10:57:41;43.92;;;26.60;;
42294;SDS011;27947;47.556;18.718;2024-01-06T11:00:08;33.03;;;18.30;;
42294;SDS011;27947;47.556;18.718;2024-01-06T11:02:35;19.95;;;13.95;;
42294;SDS011;27947;47.556;18.718;2024-01-06T11:05:00;35.35;;;22.27;;
42294;SDS011;27947;47.556;18.718;2024-01-06T11:07:25;41.28;;;25.77;;
42294;SDS011;27947;47.556;18.718;2024-01-06T11:09:53;41.53;;;25.48;;
42294;SDS011;27947;47.556;18.718;2024-01-06T11:12:19;32.35;;;22.20;;
42294;SDS011;27947;47.556;18.718;2024-01-06T11:14:44;28.38;;;19.88;;
42294;SDS011;27947;47.556;18.718;2024-01-06T11:17:11;22.45;;;16.65;;
42294;SDS011;27947;47.556;18.718;2024-01-06T11:24:43;16.65;;;11.13;;
42294;SDS011;27947;47.556;18.718;2024-01-06T11:27:09;16.35;;;10.88;;
42294;SDS011;27947;47.556;18.718;2024-01-06T11:29:42;15.00;;;10.43;;
42294;SDS011;27947;47.556;18.718;2024-01-06T11:32:18;17.95;;;11.10;;
42294;SDS011;27947;47.556;18.718;2024-01-06T11:34:49;14.07;;;9.88;;
42294;SDS011;27947;47.556;18.718;2024-01-06T11:37:16;17.10;;;11.13;;
42294;SDS011;27947;47.556;18.718;2024-01-06T11:39:42;16.08;;;10.35;;
42294;SDS011;27947;47.556;18.718;2024-01-06T11:42:11;14.85;;;8.77;;
42294;SDS011;27947;47.556;18.718;2024-01-06T11:44:37;11.68;;;8.25;;
42294;SDS011;27947;47.556;18.718;2024-01-06T11:47:03;11.98;;;8.52;;
42294;SDS011;27947;47.556;18.718;2024-01-06T11:49:29;13.35;;;8.38;;
42294;SDS011;27947;47.556;18.718;2024-01-06T11:51:54;13.50;;;8.07;;
42294;SDS011;27947;47.556;18.718;2024-01-06T11:54:21;12.00;;;8.48;;
42294;SDS011;27947;47.556;18.718;2024-01-06T11:56:46;16.35;;;9.07;;
42294;SDS011;27947;47.556;18.718;2024-01-06T11:59:12;16.55;;;8.90;;
42294;SDS011;27947;47.556;18.718;2024-01-06T12:01:37;13.70;;;9.55;;
42294;SDS011;27947;47.556;18.718;2024-01-06T12:04:03;12.13;;;8.07;;
42294;SDS011;27947;47.556;18.718;2024-01-06T12:06:30;12.15;;;7.68;;
42294;SDS011;27947;47.556;18.718;2024-01-06T12:09:09;10.10;;;6.93;;
42294;SDS011;27947;47.556;18.718;2024-01-06T12:11:34;13.80;;;9.00;;
42294;SDS011;27947;47.556;18.718;2024-01-06T12:13:59;13.07;;;7.90;;
42294;SDS011;27947;47.556;18.718;2024-01-06T12:16:25;13.90;;;8.05;;
42294;SDS011;27947;47.556;18.718;2024-01-06T12:18:54;11.02;;;7.60;;
42294;SDS011;27947;47.556;18.718;2024-01-06T12:21:24;11.63;;;7.70;;
42294;SDS011;27947;47.556;18.718;2024-01-06T12:23:50;10.38;;;6.97;;
42294;SDS011;27947;47.556;18.718;2024-01-06T12:26:18;9.70;;;7.28;;
42294;SDS011;27947;47.556;18.718;2024-01-06T12:28:46;14.18;;;9.05;;
42294;SDS011;27947;47.556;18.718;2024-01-06T12:31:12;12.13;;;8.43;;
42294;SDS011;27947;47.556;18.718;2024-01-06T12:33:38;12.13;;;8.63;;
42294;SDS011;27947;47.556;18.718;2024-01-06T12:36:04;13.18;;;8.63;;
42294;SDS011;27947;47.556;18.718;2024-01-06T12:38:29;13.40;;;8.02;;
42294;SDS011;27947;47.556;18.718;2024-01-06T12:40:55;13.18;;;8.75;;
42294;SDS011;27947;47.556;18.718;2024-01-06T12:43:20;19.20;;;9.85;;
42294;SDS011;27947;47.556;18.718;2024-01-06T12:45:45;14.75;;;10.77;;
42294;SDS011;27947;47.556;18.718;2024-01-06T12:48:11;29.75;;;15.80;;
42294;SDS011;27947;47.556;18.718;2024-01-06T12:50:36;55.28;;;32.78;;
42294;SDS011;27947;47.556;18.718;2024-01-06T12:53:02;36.45;;;21.83;;
42294;SDS011;27947;47.556;18.718;2024-01-06T12:55:27;29.13;;;18.50;;
42294;SDS011;27947;47.556;18.718;2024-01-06T12:57:52;23.23;;;14.50;;
42294;SDS011;27947;47.556;18.718;2024-01-06T13:00:18;21.23;;;12.77;;
42294;SDS011;27947;47.556;18.718;2024-01-06T13:02:43;19.33;;;11.43;;
42294;SDS011;27947;47.556;18.718;2024-01-06T13:05:08;16.80;;;11.30;;
42294;SDS011;27947;47.556;18.718;2024-01-06T13:07:34;20.90;;;14.23;;
42294;SDS011;27947;47.556;18.718;2024-01-06T13:09:59;29.05;;;18.23;;
42294;SDS011;27947;47.556;18.718;2024-01-06T13:12:25;34.63;;;21.90;;
42294;SDS011;27947;47.556;18.718;2024-01-06T13:14:50;31.08;;;20.58;;
42294;SDS011;27947;47.556;18.718;2024-01-06T13:17:16;32.17;;;20.55;;
42294;SDS011;27947;47.556;18.718;2024-01-06T13:19:41;26.63;;;16.98;;
42294;SDS011;27947;47.556;18.718;2024-01-06T13:22:07;21.48;;;15.25;;
42294;SDS011;27947;47.556;18.718;2024-01-06T13:24:32;24.10;;;15.93;;
42294;SDS011;27947;47.556;18.718;2024-01-06T13:26:57;23.10;;;15.32;;
42294;SDS011;27947;47.556;18.718;2024-01-06T13:29:24;21.52;;;14.90;;
42294;SDS011;27947;47.556;18.718;2024-01-06T13:31:49;22.40;;;14.13;;
42294;SDS011;27947;47.556;18.718;2024-01-06T13:34:14;19.13;;;14.50;;
42294;SDS011;27947;47.556;18.718;2024-01-06T13:36:39;22.65;;;14.35;;
42294;SDS011;27947;47.556;18.718;2024-01-06T13:39:06;21.95;;;13.75;;
42294;SDS011;27947;47.556;18.718;2024-01-06T13:41:32;21.80;;;13.93;;
42294;SDS011;27947;47.556;18.718;2024-01-06T13:43:57;20.15;;;14.13;;
42294;SDS011;27947;47.556;18.718;2024-01-06T13:46:23;23.08;;;15.40;;
42294;SDS011;27947;47.556;18.718;2024-01-06T13:48:48;25.55;;;17.83;;
42294;SDS011;27947;47.556;18.718;2024-01-06T13:51:13;35.20;;;24.23;;
42294;SDS011;27947;47.556;18.718;2024-01-06T13:53:39;28.42;;;17.73;;
42294;SDS011;27947;47.556;18.718;2024-01-06T13:56:04;22.38;;;15.18;;
42294;SDS011;27947;47.556;18.718;2024-01-06T13:58:30;23.60;;;15.98;;
42294;SDS011;27947;47.556;18.718;2024-01-06T14:00:56;26.92;;;16.40;;
42294;SDS011;27947;47.556;18.718;2024-01-06T14:03:21;23.52;;;15.02;;
42294;SDS011;27947;47.556;18.718;2024-01-06T14:05:47;21.95;;;14.40;;
42294;SDS011;27947;47.556;18.718;2024-01-06T14:08:12;23.52;;;14.43;;